sensor_id;sensor_type;location;lat;lon;timestamp;P1;durP1;ratioP1;P2;durP2;ratioP2
24617;SDS011;12762;51.730;5.356;2023-05-16T00:00:50;13.37;;;2.23;;
24617;SDS011;12762;51.730;5.356;2023-05-16T00:03:18;13.67;;;2.67;;
24617;SDS011;12762;51.730;5.356;2023-05-16T00:05:46;12.10;;;2.20;;
24617;SDS011;12762;51.730;5.356;2023-05-16T00:08:13;11.80;;;1.90;;
24617;SDS011;12762;51.730;5.356;2023-05-16T00:10:40;10.67;;;2.10;;
24617;SDS011;12762;51.730;5.356;2023-05-16T00:13:07;15.57;;;2.07;;
24617;SDS011;12762;51.730;5.356;2023-05-16T00:15:35;15.30;;;2.30;;
24617;SDS011;12762;51.730;5.356;2023-05-16T00:18:03;9.63;;;1.77;;
24617;SDS011;12762;51.730;5.356;2023-05-16T00:20:30;11.30;;;1.60;;
24617;SDS011;12762;51.730;5.356;2023-05-16T00:22:57;12.80;;;2.23;;
24617;SDS011;12762;51.730;5.356;2023-05-16T00:25:27;12.87;;;1.90;;
24617;SDS011;12762;51.730;5.356;2023-05-16T00:27:54;15.87;;;2.07;;
24617;SDS011;12762;51.730;5.356;2023-05-16T00:30:21;9.63;;;2.20;;
24617;SDS011;12762;51.730;5.356;2023-05-16T00:32:48;11.27;;;2.30;;
24617;SDS011;12762;51.730;5.356;2023-05-16T00:35:15;8.47;;;2.03;;
24617;SDS011;12762;51.730;5.356;2023-05-16T00:37:41;11.03;;;2.17;;
24617;SDS011;12762;51.730;5.356;2023-05-16T00:40:09;9.97;;;1.77;;
24617;SDS011;12762;51.730;5.356;2023-05-16T00:42:36;12.60;;;2.10;;
24617;SDS011;12762;51.730;5.356;2023-05-16T00:45:04;9.73;;;1.50;;
24617;SDS011;12762;51.730;5.356;2023-05-16T00:47:32;8.17;;;2.27;;
24617;SDS011;12762;51.730;5.356;2023-05-16T00:49:59;8.07;;;1.60;;
24617;SDS011;12762;51.730;5.356;2023-05-16T00:52:26;11.87;;;1.70;;
24617;SDS011;12762;51.730;5.356;2023-05-16T00:54:53;10.13;;;1.80;;
24617;SDS011;12762;51.730;5.356;2023-05-16T00:57:20;11.77;;;1.60;;
24617;SDS011;12762;51.730;5.356;2023-05-16T00:59:47;11.37;;;1.47;;
24617;SDS011;12762;51.730;5.356;2023-05-16T01:02:15;9.37;;;1.87;;
24617;SDS011;12762;51.730;5.356;2023-05-16T01:04:44;7.83;;;1.77;;
24617;SDS011;12762;51.730;5.356;2023-05-16T01:07:13;14.07;;;2.23;;
24617;SDS011;12762;51.730;5.356;2023-05-16T01:09:40;10.10;;;1.60;;
24617;SDS011;12762;51.730;5.356;2023-05-16T01:12:29;10.90;;;2.40;;
24617;SDS011;12762;51.730;5.356;2023-05-16T01:17:54;10.83;;;1.70;;
24617;SDS011;12762;51.730;5.356;2023-05-16T01:20:22;13.63;;;2.20;;
24617;SDS011;12762;51.730;5.356;2023-05-16T01:26:28;13.47;;;1.87;;
24617;SDS011;12762;51.730;5.356;2023-05-16T01:28:57;8.83;;;1.40;;
24617;SDS011;12762;51.730;5.356;2023-05-16T01:31:24;12.40;;;2.17;;
24617;SDS011;12762;51.730;5.356;2023-05-16T01:33:51;14.30;;;1.70;;
24617;SDS011;12762;51.730;5.356;2023-05-16T01:39:10;13.43;;;2.30;;
24617;SDS011;12762;51.730;5.356;2023-05-16T01:41:38;9.10;;;1.70;;
24617;SDS011;12762;51.730;5.356;2023-05-16T01:44:15;13.20;;;2.10;;
24617;SDS011;12762;51.730;5.356;2023-05-16T01:46:46;9.13;;;1.80;;
24617;SDS011;12762;51.730;5.356;2023-05-16T01:49:32;10.80;;;2.43;;
24617;SDS011;12762;51.730;5.356;2023-05-16T01:52:12;16.33;;;1.87;;
24617;SDS011;12762;51.730;5.356;2023-05-16T01:54:43;10.87;;;2.20;;
24617;SDS011;12762;51.730;5.356;2023-05-16T01:57:11;8.13;;;2.07;;
24617;SDS011;12762;51.730;5.356;2023-05-16T01:59:40;9.17;;;1.90;;
24617;SDS011;12762;51.730;5.356;2023-05-16T02:02:09;12.67;;;2.33;;
24617;SDS011;12762;51.730;5.356;2023-05-16T02:04:36;11.03;;;1.67;;
24617;SDS011;12762;51.730;5.356;2023-05-16T02:07:02;13.57;;;2.13;;
24617;SDS011;12762;51.730;5.356;2023-05-16T02:09:29;11.70;;;2.00;;
24617;SDS011;12762;51.730;5.356;2023-05-16T02:11:57;10.10;;;2.47;;
24617;SDS011;12762;51.730;5.356;2023-05-16T02:14:23;16.07;;;2.93;;
24617;SDS011;12762;51.730;5.356;2023-05-16T02:16:51;14.17;;;1.83;;
24617;SDS011;12762;51.730;5.356;2023-05-16T02:19:18;8.10;;;1.70;;
24617;SDS011;12762;51.730;5.356;2023-05-16T02:21:45;11.93;;;1.57;;
24617;SDS011;12762;51.730;5.356;2023-05-16T02:24:12;14.00;;;2.20;;
24617;SDS011;12762;51.730;5.356;2023-05-16T02:26:38;13.90;;;1.80;;
24617;SDS011;12762;51.730;5.356;2023-05-16T02:29:08;10.07;;;2.43;;
24617;SDS011;12762;51.730;5.356;2023-05-16T02:31:35;8.50;;;1.73;;
24617;SDS011;12762;51.730;5.356;2023-05-16T02:34:02;7.13;;;1.77;;
24617;SDS011;12762;51.730;5.356;2023-05-16T02:36:29;14.03;;;2.13;;
24617;SDS011;12762;51.730;5.356;2023-05-16T02:38:56;11.53;;;1.70;;
24617;SDS011;12762;51.730;5.356;2023-05-16T02:41:23;13.00;;;2.30;;
24617;SDS011;12762;51.730;5.356;2023-05-16T02:43:53;13.27;;;1.53;;
24617;SDS011;12762;51.730;5.356;2023-05-16T02:46:20;10.90;;;1.67;;
24617;SDS011;12762;51.730;5.356;2023-05-16T02:48:53;8.77;;;1.50;;
24617;SDS011;12762;51.730;5.356;2023-05-16T02:51:21;10.07;;;1.87;;
24617;SDS011;12762;51.730;5.356;2023-05-16T02:53:49;12.27;;;2.13;;
24617;SDS011;12762;51.730;5.356;2023-05-16T02:56:16;11.10;;;1.60;;
24617;SDS011;12762;51.730;5.356;2023-05-16T02:58:45;8.80;;;1.77;;
24617;SDS011;12762;51.730;5.356;2023-05-16T03:01:16;11.83;;;1.80;;
24617;SDS011;12762;51.730;5.356;2023-05-16T03:03:43;8.97;;;1.70;;
24617;SDS011;12762;51.730;5.356;2023-05-16T03:06:10;8.20;;;1.90;;
24617;SDS011;12762;51.730;5.356;2023-05-16T03:08:37;10.07;;;1.97;;
24617;SDS011;12762;51.730;5.356;2023-05-16T03:11:04;11.27;;;1.97;;
24617;SDS011;12762;51.730;5.356;2023-05-16T03:13:31;10.10;;;1.83;;
24617;SDS011;12762;51.730;5.356;2023-05-16T03:15:58;8.67;;;2.20;;
24617;SDS011;12762;51.730;5.356;2023-05-16T03:18:27;12.60;;;2.10;;
24617;SDS011;12762;51.730;5.356;2023-05-16T03:20:57;13.63;;;2.30;;
24617;SDS011;12762;51.730;5.356;2023-05-16T03:23:24;11.03;;;2.10;;
24617;SDS011;12762;51.730;5.356;2023-05-16T03:25:52;8.10;;;2.00;;
24617;SDS011;12762;51.730;5.356;2023-05-16T03:28:19;11.13;;;1.90;;
24617;SDS011;12762;51.730;5.356;2023-05-16T03:30:46;13.13;;;2.23;;
24617;SDS011;12762;51.730;5.356;2023-05-16T03:33:13;8.70;;;1.77;;
24617;SDS011;12762;51.730;5.356;2023-05-16T03:35:41;9.50;;;2.00;;
24617;SDS011;12762;51.730;5.356;2023-05-16T03:38:09;8.50;;;1.83;;
24617;SDS011;12762;51.730;5.356;2023-05-16T03:40:36;13.83;;;2.40;;
24617;SDS011;12762;51.730;5.356;2023-05-16T03:43:10;9.33;;;2.23;;
24617;SDS011;12762;51.730;5.356;2023-05-16T03:45:37;15.00;;;2.53;;
24617;SDS011;12762;51.730;5.356;2023-05-16T03:48:03;10.80;;;2.43;;
24617;SDS011;12762;51.730;5.356;2023-05-16T03:50:31;5.27;;;1.90;;
24617;SDS011;12762;51.730;5.356;2023-05-16T03:52:57;12.80;;;2.50;;
24617;SDS011;12762;51.730;5.356;2023-05-16T03:55:26;8.10;;;2.03;;
24617;SDS011;12762;51.730;5.356;2023-05-16T03:57:53;7.87;;;2.30;;
24617;SDS011;12762;51.730;5.356;2023-05-16T04:00:20;9.87;;;2.17;;
24617;SDS011;12762;51.730;5.356;2023-05-16T04:02:47;6.53;;;1.83;;
24617;SDS011;12762;51.730;5.356;2023-05-16T04:05:14;10.13;;;2.40;;
24617;SDS011;12762;51.730;5.356;2023-05-16T04:07:41;14.53;;;2.30;;
24617;SDS011;12762;51.730;5.356;2023-05-16T04:10:08;11.03;;;2.13;;
24617;SDS011;12762;51.730;5.356;2023-05-16T04:12:36;8.83;;;1.90;;
24617;SDS011;12762;51.730;5.356;2023-05-16T04:15:03;11.87;;;2.20;;
24617;SDS011;12762;51.730;5.356;2023-05-16T04:17:32;11.63;;;2.00;;
24617;SDS011;12762;51.730;5.356;2023-05-16T04:19:59;8.87;;;1.77;;
24617;SDS011;12762;51.730;5.356;2023-05-16T04:22:26;14.10;;;2.70;;
24617;SDS011;12762;51.730;5.356;2023-05-16T04:24:53;9.83;;;2.20;;
24617;SDS011;12762;51.730;5.356;2023-05-16T04:27:19;9.93;;;1.80;;
24617;SDS011;12762;51.730;5.356;2023-05-16T04:29:46;7.83;;;1.90;;
24617;SDS011;12762;51.730;5.356;2023-05-16T04:32:13;10.27;;;2.20;;
24617;SDS011;12762;51.730;5.356;2023-05-16T04:34:42;10.50;;;2.33;;
24617;SDS011;12762;51.730;5.356;2023-05-16T04:37:12;11.27;;;2.23;;
24617;SDS011;12762;51.730;5.356;2023-05-16T04:39:39;11.50;;;2.33;;
24617;SDS011;12762;51.730;5.356;2023-05-16T04:42:07;10.97;;;2.10;;
24617;SDS011;12762;51.730;5.356;2023-05-16T04:44:34;9.73;;;2.37;;
24617;SDS011;12762;51.730;5.356;2023-05-16T04:47:01;10.20;;;2.57;;
24617;SDS011;12762;51.730;5.356;2023-05-16T04:49:28;10.80;;;2.03;;
24617;SDS011;12762;51.730;5.356;2023-05-16T04:52:00;14.47;;;2.30;;
24617;SDS011;12762;51.730;5.356;2023-05-16T04:54:27;8.70;;;2.33;;
24617;SDS011;12762;51.730;5.356;2023-05-16T04:56:54;8.00;;;1.93;;
24617;SDS011;12762;51.730;5.356;2023-05-16T04:59:22;9.10;;;1.97;;
24617;SDS011;12762;51.730;5.356;2023-05-16T05:01:49;15.50;;;2.60;;
24617;SDS011;12762;51.730;5.356;2023-05-16T05:04:16;10.33;;;2.73;;
24617;SDS011;12762;51.730;5.356;2023-05-16T05:06:43;10.03;;;2.37;;
24617;SDS011;12762;51.730;5.356;2023-05-16T05:09:12;12.13;;;2.37;;
24617;SDS011;12762;51.730;5.356;2023-05-16T05:11:39;15.60;;;2.67;;
24617;SDS011;12762;51.730;5.356;2023-05-16T05:14:05;14.47;;;2.47;;
24617;SDS011;12762;51.730;5.356;2023-05-16T05:16:32;16.30;;;2.40;;
24617;SDS011;12762;51.730;5.356;2023-05-16T05:19:00;13.63;;;2.30;;
24617;SDS011;12762;51.730;5.356;2023-05-16T05:21:27;8.53;;;2.10;;
24617;SDS011;12762;51.730;5.356;2023-05-16T05:23:55;9.93;;;2.60;;
24617;SDS011;12762;51.730;5.356;2023-05-16T05:26:23;10.90;;;2.23;;
24617;SDS011;12762;51.730;5.356;2023-05-16T05:28:51;9.90;;;2.47;;
24617;SDS011;12762;51.730;5.356;2023-05-16T05:31:31;14.93;;;2.73;;
24617;SDS011;12762;51.730;5.356;2023-05-16T05:34:00;8.00;;;2.20;;
24617;SDS011;12762;51.730;5.356;2023-05-16T05:36:27;11.00;;;2.77;;
24617;SDS011;12762;51.730;5.356;2023-05-16T05:38:57;8.13;;;2.47;;
24617;SDS011;12762;51.730;5.356;2023-05-16T05:41:24;10.87;;;2.33;;
24617;SDS011;12762;51.730;5.356;2023-05-16T05:43:52;8.73;;;3.00;;
24617;SDS011;12762;51.730;5.356;2023-05-16T05:46:18;11.33;;;2.63;;
24617;SDS011;12762;51.730;5.356;2023-05-16T05:48:46;11.60;;;2.43;;
24617;SDS011;12762;51.730;5.356;2023-05-16T05:51:13;11.43;;;2.07;;
24617;SDS011;12762;51.730;5.356;2023-05-16T05:53:40;12.03;;;2.37;;
24617;SDS011;12762;51.730;5.356;2023-05-16T05:56:07;10.33;;;2.27;;
24617;SDS011;12762;51.730;5.356;2023-05-16T05:58:34;13.43;;;2.40;;
24617;SDS011;12762;51.730;5.356;2023-05-16T06:01:01;14.17;;;2.20;;
24617;SDS011;12762;51.730;5.356;2023-05-16T06:03:28;9.03;;;2.00;;
24617;SDS011;12762;51.730;5.356;2023-05-16T06:05:58;8.57;;;1.83;;
24617;SDS011;12762;51.730;5.356;2023-05-16T06:08:24;7.00;;;1.87;;
24617;SDS011;12762;51.730;5.356;2023-05-16T06:10:51;6.90;;;2.13;;
24617;SDS011;12762;51.730;5.356;2023-05-16T06:13:19;7.43;;;1.97;;
24617;SDS011;12762;51.730;5.356;2023-05-16T06:15:52;9.33;;;1.97;;
24617;SDS011;12762;51.730;5.356;2023-05-16T06:18:20;8.47;;;2.00;;
24617;SDS011;12762;51.730;5.356;2023-05-16T06:20:47;10.50;;;1.93;;
24617;SDS011;12762;51.730;5.356;2023-05-16T06:23:14;9.90;;;2.13;;
24617;SDS011;12762;51.730;5.356;2023-05-16T06:25:41;9.10;;;2.00;;
24617;SDS011;12762;51.730;5.356;2023-05-16T06:28:07;8.30;;;1.63;;
24617;SDS011;12762;51.730;5.356;2023-05-16T06:30:34;11.33;;;1.83;;
24617;SDS011;12762;51.730;5.356;2023-05-16T06:33:01;10.93;;;2.13;;
24617;SDS011;12762;51.730;5.356;2023-05-16T06:35:31;8.97;;;1.80;;
24617;SDS011;12762;51.730;5.356;2023-05-16T06:38:01;4.87;;;1.77;;
24617;SDS011;12762;51.730;5.356;2023-05-16T06:40:28;13.00;;;2.43;;
24617;SDS011;12762;51.730;5.356;2023-05-16T06:42:55;7.77;;;1.60;;
24617;SDS011;12762;51.730;5.356;2023-05-16T06:45:23;11.43;;;1.90;;
24617;SDS011;12762;51.730;5.356;2023-05-16T06:47:50;10.33;;;1.80;;
24617;SDS011;12762;51.730;5.356;2023-05-16T06:50:20;6.27;;;1.47;;
24617;SDS011;12762;51.730;5.356;2023-05-16T06:52:47;7.60;;;1.50;;
24617;SDS011;12762;51.730;5.356;2023-05-16T06:55:14;10.23;;;1.73;;
24617;SDS011;12762;51.730;5.356;2023-05-16T06:57:40;10.83;;;1.57;;
24617;SDS011;12762;51.730;5.356;2023-05-16T07:00:07;8.63;;;1.30;;
24617;SDS011;12762;51.730;5.356;2023-05-16T07:02:35;11.40;;;1.90;;
24617;SDS011;12762;51.730;5.356;2023-05-16T07:05:02;8.17;;;1.10;;
24617;SDS011;12762;51.730;5.356;2023-05-16T07:07:29;9.23;;;1.37;;
24617;SDS011;12762;51.730;5.356;2023-05-16T07:09:56;6.77;;;1.60;;
24617;SDS011;12762;51.730;5.356;2023-05-16T07:12:23;8.97;;;1.27;;
24617;SDS011;12762;51.730;5.356;2023-05-16T07:14:49;7.27;;;1.30;;
24617;SDS011;12762;51.730;5.356;2023-05-16T07:17:16;6.30;;;1.30;;
24617;SDS011;12762;51.730;5.356;2023-05-16T07:19:46;5.87;;;1.30;;
24617;SDS011;12762;51.730;5.356;2023-05-16T07:22:13;5.90;;;1.30;;
24617;SDS011;12762;51.730;5.356;2023-05-16T07:24:40;6.17;;;0.90;;
24617;SDS011;12762;51.730;5.356;2023-05-16T07:27:10;4.87;;;1.13;;
24617;SDS011;12762;51.730;5.356;2023-05-16T07:29:37;6.43;;;1.17;;
24617;SDS011;12762;51.730;5.356;2023-05-16T07:32:04;4.53;;;0.90;;
24617;SDS011;12762;51.730;5.356;2023-05-16T07:34:31;5.80;;;1.03;;
24617;SDS011;12762;51.730;5.356;2023-05-16T07:36:58;4.80;;;0.90;;
24617;SDS011;12762;51.730;5.356;2023-05-16T07:39:25;5.27;;;1.07;;
24617;SDS011;12762;51.730;5.356;2023-05-16T07:41:52;6.73;;;0.80;;
24617;SDS011;12762;51.730;5.356;2023-05-16T07:44:19;5.63;;;1.43;;
24617;SDS011;12762;51.730;5.356;2023-05-16T07:46:46;6.23;;;0.70;;
24617;SDS011;12762;51.730;5.356;2023-05-16T07:49:13;8.53;;;1.30;;
24617;SDS011;12762;51.730;5.356;2023-05-16T07:51:40;4.87;;;0.90;;
24617;SDS011;12762;51.730;5.356;2023-05-16T07:54:06;6.17;;;0.90;;
24617;SDS011;12762;51.730;5.356;2023-05-16T07:56:33;6.53;;;0.93;;
24617;SDS011;12762;51.730;5.356;2023-05-16T07:59:00;5.30;;;1.00;;
24617;SDS011;12762;51.730;5.356;2023-05-16T08:01:28;4.23;;;0.70;;
24617;SDS011;12762;51.730;5.356;2023-05-16T08:03:55;5.17;;;0.70;;
24617;SDS011;12762;51.730;5.356;2023-05-16T08:06:22;4.73;;;0.50;;
24617;SDS011;12762;51.730;5.356;2023-05-16T08:08:48;5.03;;;1.17;;
24617;SDS011;12762;51.730;5.356;2023-05-16T08:11:16;4.73;;;0.80;;
24617;SDS011;12762;51.730;5.356;2023-05-16T08:13:44;6.80;;;0.87;;
24617;SDS011;12762;51.730;5.356;2023-05-16T08:16:11;5.00;;;0.87;;
24617;SDS011;12762;51.730;5.356;2023-05-16T08:18:38;9.17;;;1.20;;
24617;SDS011;12762;51.730;5.356;2023-05-16T08:21:05;7.07;;;0.80;;
24617;SDS011;12762;51.730;5.356;2023-05-16T08:23:32;7.43;;;0.90;;
24617;SDS011;12762;51.730;5.356;2023-05-16T08:25:59;3.20;;;0.60;;
24617;SDS011;12762;51.730;5.356;2023-05-16T08:28:27;5.87;;;0.93;;
24617;SDS011;12762;51.730;5.356;2023-05-16T08:30:54;6.00;;;0.80;;
24617;SDS011;12762;51.730;5.356;2023-05-16T08:33:21;2.77;;;0.60;;
24617;SDS011;12762;51.730;5.356;2023-05-16T08:35:51;5.83;;;0.70;;
24617;SDS011;12762;51.730;5.356;2023-05-16T08:38:18;3.57;;;0.90;;
24617;SDS011;12762;51.730;5.356;2023-05-16T08:40:45;5.50;;;0.90;;
24617;SDS011;12762;51.730;5.356;2023-05-16T08:43:12;3.43;;;0.77;;
24617;SDS011;12762;51.730;5.356;2023-05-16T08:45:40;5.27;;;0.90;;
24617;SDS011;12762;51.730;5.356;2023-05-16T08:48:08;4.33;;;1.20;;
24617;SDS011;12762;51.730;5.356;2023-05-16T08:50:39;3.43;;;0.80;;
24617;SDS011;12762;51.730;5.356;2023-05-16T08:53:08;5.93;;;0.80;;
24617;SDS011;12762;51.730;5.356;2023-05-16T08:55:37;4.50;;;1.20;;
24617;SDS011;12762;51.730;5.356;2023-05-16T08:58:06;3.80;;;0.93;;
24617;SDS011;12762;51.730;5.356;2023-05-16T09:00:33;4.33;;;1.13;;
24617;SDS011;12762;51.730;5.356;2023-05-16T09:03:01;5.47;;;0.87;;
24617;SDS011;12762;51.730;5.356;2023-05-16T09:05:28;7.17;;;0.90;;
24617;SDS011;12762;51.730;5.356;2023-05-16T09:07:55;9.43;;;1.00;;
24617;SDS011;12762;51.730;5.356;2023-05-16T09:10:22;6.17;;;0.77;;
24617;SDS011;12762;51.730;5.356;2023-05-16T09:12:49;5.43;;;0.90;;
24617;SDS011;12762;51.730;5.356;2023-05-16T09:15:17;2.90;;;0.60;;
24617;SDS011;12762;51.730;5.356;2023-05-16T09:17:46;3.07;;;1.20;;
24617;SDS011;12762;51.730;5.356;2023-05-16T09:20:15;7.63;;;0.83;;
24617;SDS011;12762;51.730;5.356;2023-05-16T09:22:50;7.50;;;1.10;;
24617;SDS011;12762;51.730;5.356;2023-05-16T09:25:22;6.80;;;0.90;;
24617;SDS011;12762;51.730;5.356;2023-05-16T09:27:56;7.33;;;1.13;;
24617;SDS011;12762;51.730;5.356;2023-05-16T09:30:28;6.90;;;0.90;;
24617;SDS011;12762;51.730;5.356;2023-05-16T09:32:57;6.03;;;1.10;;
24617;SDS011;12762;51.730;5.356;2023-05-16T09:35:25;6.33;;;0.90;;
24617;SDS011;12762;51.730;5.356;2023-05-16T09:37:54;5.23;;;0.80;;
24617;SDS011;12762;51.730;5.356;2023-05-16T09:40:22;6.53;;;1.10;;
24617;SDS011;12762;51.730;5.356;2023-05-16T09:43:05;4.47;;;0.90;;
24617;SDS011;12762;51.730;5.356;2023-05-16T09:45:34;6.47;;;0.93;;
24617;SDS011;12762;51.730;5.356;2023-05-16T09:48:05;8.33;;;1.13;;
24617;SDS011;12762;51.730;5.356;2023-05-16T09:50:38;5.07;;;1.97;;
24617;SDS011;12762;51.730;5.356;2023-05-16T09:53:06;3.93;;;0.93;;
24617;SDS011;12762;51.730;5.356;2023-05-16T09:55:32;7.03;;;0.97;;
24617;SDS011;12762;51.730;5.356;2023-05-16T09:58:00;4.67;;;0.70;;
24617;SDS011;12762;51.730;5.356;2023-05-16T10:00:29;5.27;;;0.83;;
24617;SDS011;12762;51.730;5.356;2023-05-16T10:02:57;2.13;;;0.50;;
24617;SDS011;12762;51.730;5.356;2023-05-16T10:05:31;4.43;;;0.90;;
24617;SDS011;12762;51.730;5.356;2023-05-16T10:07:59;4.40;;;0.97;;
24617;SDS011;12762;51.730;5.356;2023-05-16T10:10:30;2.77;;;0.70;;
24617;SDS011;12762;51.730;5.356;2023-05-16T10:13:01;5.73;;;0.87;;
24617;SDS011;12762;51.730;5.356;2023-05-16T10:15:31;4.80;;;1.17;;
24617;SDS011;12762;51.730;5.356;2023-05-16T10:17:59;5.37;;;1.43;;
24617;SDS011;12762;51.730;5.356;2023-05-16T10:20:27;4.53;;;0.90;;
24617;SDS011;12762;51.730;5.356;2023-05-16T10:22:54;4.53;;;1.03;;
24617;SDS011;12762;51.730;5.356;2023-05-16T10:25:24;7.67;;;1.13;;
24617;SDS011;12762;51.730;5.356;2023-05-16T10:28:05;3.37;;;0.60;;
24617;SDS011;12762;51.730;5.356;2023-05-16T10:30:42;5.30;;;0.97;;
24617;SDS011;12762;51.730;5.356;2023-05-16T10:33:13;4.37;;;0.87;;
24617;SDS011;12762;51.730;5.356;2023-05-16T10:35:54;5.20;;;0.73;;
24617;SDS011;12762;51.730;5.356;2023-05-16T10:38:57;4.60;;;0.70;;
24617;SDS011;12762;51.730;5.356;2023-05-16T10:41:39;5.23;;;0.97;;
24617;SDS011;12762;51.730;5.356;2023-05-16T10:44:12;2.63;;;0.60;;
24617;SDS011;12762;51.730;5.356;2023-05-16T10:46:43;6.73;;;1.07;;
24617;SDS011;12762;51.730;5.356;2023-05-16T10:49:21;3.97;;;0.97;;
24617;SDS011;12762;51.730;5.356;2023-05-16T10:54:40;10.83;;;1.40;;
24617;SDS011;12762;51.730;5.356;2023-05-16T10:57:17;7.33;;;0.87;;
24617;SDS011;12762;51.730;5.356;2023-05-16T11:00:12;2.73;;;0.77;;
24617;SDS011;12762;51.730;5.356;2023-05-16T11:02:50;4.63;;;0.90;;
24617;SDS011;12762;51.730;5.356;2023-05-16T11:05:21;3.87;;;0.90;;
24617;SDS011;12762;51.730;5.356;2023-05-16T11:08:03;3.87;;;1.00;;
24617;SDS011;12762;51.730;5.356;2023-05-16T11:10:33;5.83;;;0.87;;
24617;SDS011;12762;51.730;5.356;2023-05-16T11:13:10;5.53;;;1.30;;
24617;SDS011;12762;51.730;5.356;2023-05-16T11:15:50;3.63;;;0.87;;
24617;SDS011;12762;51.730;5.356;2023-05-16T11:18:31;4.10;;;0.93;;
24617;SDS011;12762;51.730;5.356;2023-05-16T11:21:40;7.50;;;1.10;;
24617;SDS011;12762;51.730;5.356;2023-05-16T11:27:44;4.33;;;1.00;;
24617;SDS011;12762;51.730;5.356;2023-05-16T11:30:12;6.30;;;0.93;;
24617;SDS011;12762;51.730;5.356;2023-05-16T11:32:43;3.17;;;0.70;;
24617;SDS011;12762;51.730;5.356;2023-05-16T11:35:12;6.23;;;1.00;;
24617;SDS011;12762;51.730;5.356;2023-05-16T11:37:41;7.80;;;1.13;;
24617;SDS011;12762;51.730;5.356;2023-05-16T11:40:09;5.17;;;1.57;;
24617;SDS011;12762;51.730;5.356;2023-05-16T11:42:38;3.70;;;0.80;;
24617;SDS011;12762;51.730;5.356;2023-05-16T11:45:10;5.73;;;1.17;;
24617;SDS011;12762;51.730;5.356;2023-05-16T11:47:41;4.00;;;0.87;;
24617;SDS011;12762;51.730;5.356;2023-05-16T11:50:13;9.03;;;1.20;;
24617;SDS011;12762;51.730;5.356;2023-05-16T11:52:45;5.83;;;0.77;;
24617;SDS011;12762;51.730;5.356;2023-05-16T11:55:15;4.33;;;1.27;;
24617;SDS011;12762;51.730;5.356;2023-05-16T11:58:03;6.33;;;1.00;;
24617;SDS011;12762;51.730;5.356;2023-05-16T12:00:33;4.93;;;1.03;;
24617;SDS011;12762;51.730;5.356;2023-05-16T12:03:01;5.00;;;0.73;;
24617;SDS011;12762;51.730;5.356;2023-05-16T12:05:30;7.50;;;1.20;;
24617;SDS011;12762;51.730;5.356;2023-05-16T12:08:00;5.70;;;0.93;;
24617;SDS011;12762;51.730;5.356;2023-05-16T12:10:30;6.43;;;1.20;;
24617;SDS011;12762;51.730;5.356;2023-05-16T12:13:00;5.67;;;0.90;;
24617;SDS011;12762;51.730;5.356;2023-05-16T12:15:27;4.83;;;0.83;;
24617;SDS011;12762;51.730;5.356;2023-05-16T12:17:55;4.03;;;1.00;;
24617;SDS011;12762;51.730;5.356;2023-05-16T12:20:22;8.83;;;1.03;;
24617;SDS011;12762;51.730;5.356;2023-05-16T12:22:51;4.03;;;0.90;;
24617;SDS011;12762;51.730;5.356;2023-05-16T12:25:22;6.00;;;1.13;;
24617;SDS011;12762;51.730;5.356;2023-05-16T12:27:58;4.77;;;1.00;;
24617;SDS011;12762;51.730;5.356;2023-05-16T12:30:31;4.73;;;1.00;;
24617;SDS011;12762;51.730;5.356;2023-05-16T12:32:59;4.53;;;0.97;;
24617;SDS011;12762;51.730;5.356;2023-05-16T12:35:32;8.17;;;0.90;;
24617;SDS011;12762;51.730;5.356;2023-05-16T12:38:02;3.47;;;0.97;;
24617;SDS011;12762;51.730;5.356;2023-05-16T12:40:30;3.50;;;0.70;;
24617;SDS011;12762;51.730;5.356;2023-05-16T12:42:58;10.93;;;1.50;;
24617;SDS011;12762;51.730;5.356;2023-05-16T12:45:26;5.77;;;1.03;;
24617;SDS011;12762;51.730;5.356;2023-05-16T12:47:53;3.73;;;0.80;;
24617;SDS011;12762;51.730;5.356;2023-05-16T12:50:20;4.97;;;0.80;;
24617;SDS011;12762;51.730;5.356;2023-05-16T12:52:52;7.33;;;0.93;;
24617;SDS011;12762;51.730;5.356;2023-05-16T12:55:20;4.57;;;1.03;;
24617;SDS011;12762;51.730;5.356;2023-05-16T12:57:48;2.87;;;0.87;;
24617;SDS011;12762;51.730;5.356;2023-05-16T13:00:16;4.43;;;1.00;;
24617;SDS011;12762;51.730;5.356;2023-05-16T13:02:45;2.50;;;0.70;;
24617;SDS011;12762;51.730;5.356;2023-05-16T13:05:14;3.53;;;0.80;;
24617;SDS011;12762;51.730;5.356;2023-05-16T13:07:41;5.00;;;0.97;;
24617;SDS011;12762;51.730;5.356;2023-05-16T13:10:09;3.13;;;0.77;;
24617;SDS011;12762;51.730;5.356;2023-05-16T13:12:39;5.07;;;0.90;;
24617;SDS011;12762;51.730;5.356;2023-05-16T13:15:07;4.07;;;0.90;;
24617;SDS011;12762;51.730;5.356;2023-05-16T13:17:39;2.70;;;0.90;;
24617;SDS011;12762;51.730;5.356;2023-05-16T13:20:07;4.87;;;1.03;;
24617;SDS011;12762;51.730;5.356;2023-05-16T13:22:40;4.87;;;0.70;;
24617;SDS011;12762;51.730;5.356;2023-05-16T13:25:08;5.77;;;1.10;;
24617;SDS011;12762;51.730;5.356;2023-05-16T13:27:36;5.93;;;0.90;;
24617;SDS011;12762;51.730;5.356;2023-05-16T13:30:03;5.27;;;1.10;;
24617;SDS011;12762;51.730;5.356;2023-05-16T13:32:30;4.40;;;0.93;;
24617;SDS011;12762;51.730;5.356;2023-05-16T13:34:58;3.47;;;0.70;;
24617;SDS011;12762;51.730;5.356;2023-05-16T13:37:25;4.63;;;0.80;;
24617;SDS011;12762;51.730;5.356;2023-05-16T13:39:52;5.23;;;1.03;;
24617;SDS011;12762;51.730;5.356;2023-05-16T13:42:22;4.90;;;0.77;;
24617;SDS011;12762;51.730;5.356;2023-05-16T13:44:49;4.13;;;1.00;;
24617;SDS011;12762;51.730;5.356;2023-05-16T13:47:16;6.00;;;1.20;;
24617;SDS011;12762;51.730;5.356;2023-05-16T13:49:43;5.83;;;0.87;;
24617;SDS011;12762;51.730;5.356;2023-05-16T13:52:11;6.27;;;0.90;;
24617;SDS011;12762;51.730;5.356;2023-05-16T13:54:38;3.67;;;0.87;;
24617;SDS011;12762;51.730;5.356;2023-05-16T13:57:06;4.67;;;0.83;;
24617;SDS011;12762;51.730;5.356;2023-05-16T13:59:33;3.50;;;0.80;;
24617;SDS011;12762;51.730;5.356;2023-05-16T14:02:20;7.23;;;1.20;;
24617;SDS011;12762;51.730;5.356;2023-05-16T14:04:47;3.87;;;1.00;;
24617;SDS011;12762;51.730;5.356;2023-05-16T14:07:15;4.83;;;0.97;;
24617;SDS011;12762;51.730;5.356;2023-05-16T14:09:42;4.17;;;0.70;;
24617;SDS011;12762;51.730;5.356;2023-05-16T14:12:10;7.43;;;1.10;;
24617;SDS011;12762;51.730;5.356;2023-05-16T14:14:37;2.63;;;0.73;;
24617;SDS011;12762;51.730;5.356;2023-05-16T14:17:05;5.33;;;0.90;;
24617;SDS011;12762;51.730;5.356;2023-05-16T14:19:32;4.53;;;0.80;;
24617;SDS011;12762;51.730;5.356;2023-05-16T14:22:00;3.93;;;0.53;;
24617;SDS011;12762;51.730;5.356;2023-05-16T14:24:26;3.57;;;0.80;;
24617;SDS011;12762;51.730;5.356;2023-05-16T14:26:53;3.77;;;0.97;;
24617;SDS011;12762;51.730;5.356;2023-05-16T14:29:20;5.03;;;0.97;;
24617;SDS011;12762;51.730;5.356;2023-05-16T14:31:47;4.03;;;0.90;;
24617;SDS011;12762;51.730;5.356;2023-05-16T14:34:14;3.23;;;0.67;;
24617;SDS011;12762;51.730;5.356;2023-05-16T14:36:41;4.23;;;0.83;;
24617;SDS011;12762;51.730;5.356;2023-05-16T14:39:10;6.93;;;0.90;;
24617;SDS011;12762;51.730;5.356;2023-05-16T14:41:38;7.13;;;0.80;;
24617;SDS011;12762;51.730;5.356;2023-05-16T14:44:05;4.20;;;0.97;;
24617;SDS011;12762;51.730;5.356;2023-05-16T14:46:32;2.97;;;0.87;;
24617;SDS011;12762;51.730;5.356;2023-05-16T14:48:59;3.93;;;0.70;;
24617;SDS011;12762;51.730;5.356;2023-05-16T14:51:26;4.50;;;0.97;;
24617;SDS011;12762;51.730;5.356;2023-05-16T14:53:55;3.37;;;0.60;;
24617;SDS011;12762;51.730;5.356;2023-05-16T14:56:23;4.13;;;0.50;;
24617;SDS011;12762;51.730;5.356;2023-05-16T14:58:52;4.00;;;0.80;;
24617;SDS011;12762;51.730;5.356;2023-05-16T15:01:19;2.00;;;0.60;;
24617;SDS011;12762;51.730;5.356;2023-05-16T15:03:46;2.97;;;0.63;;
24617;SDS011;12762;51.730;5.356;2023-05-16T15:06:20;3.57;;;0.77;;
24617;SDS011;12762;51.730;5.356;2023-05-16T15:08:47;5.10;;;0.70;;